createdAt,value
2023-03-04T00:00:26.996Z,51.9
2023-03-04T00:05:27.553Z,52.1
2023-03-04T00:10:28.003Z,52.1
2023-03-04T00:15:28.470Z,54.2
2023-03-04T00:20:29.045Z,55.1
2023-03-04T00:25:29.937Z,52
2023-03-04T00:30:30.337Z,51.9
2023-03-04T00:35:31.058Z,50.5
2023-03-04T00:40:31.834Z,49.1
2023-03-04T00:45:32.317Z,48.6
2023-03-04T00:50:32.886Z,46.9
2023-03-04T00:55:33.277Z,46.5
2023-03-04T01:00:33.741Z,48.3
2023-03-04T01:05:34.330Z,47.1
2023-03-04T01:10:34.800Z,61
2023-03-04T01:15:35.251Z,46.2
2023-03-04T01:20:35.803Z,44.5
2023-03-04T01:25:36.583Z,45.4
2023-03-04T01:30:37.101Z,43.5
2023-03-04T01:35:37.669Z,43.7
2023-03-04T01:40:38.245Z,44.1
2023-03-04T01:45:40.997Z,44.8
2023-03-04T01:50:41.464Z,46.5
2023-03-04T01:55:41.909Z,46.2
2023-03-04T02:00:42.467Z,46.3
2023-03-04T02:05:43.161Z,45.2
2023-03-04T02:10:43.612Z,43.8
2023-03-04T02:15:44.196Z,46.2
2023-03-04T02:20:44.794Z,47.5
2023-03-04T02:25:45.318Z,47.1
2023-03-04T02:30:45.845Z,46.7
2023-03-04T02:35:46.550Z,48.2
2023-03-04T02:40:47.047Z,46.3
2023-03-04T02:45:47.913Z,47.8
2023-03-04T02:50:48.437Z,46.9
2023-03-04T02:55:48.940Z,49.5
2023-03-04T03:00:49.545Z,51.8
2023-03-04T03:05:50.032Z,45.3
2023-03-04T03:10:50.535Z,44.2
2023-03-04T03:15:51.159Z,44.2
2023-03-04T03:20:51.625Z,44.3
2023-03-04T03:25:52.187Z,43.2
2023-03-04T03:30:52.612Z,42
2023-03-04T03:35:53.334Z,39.3
2023-03-04T03:40:53.854Z,37.9
2023-03-04T03:45:54.354Z,38.4
2023-03-04T03:50:54.785Z,35.4
2023-03-04T03:55:55.303Z,33.4
2023-03-04T04:00:58.929Z,32.7
2023-03-04T04:05:59.341Z,31.1
2023-03-04T04:10:59.965Z,30.6
2023-03-04T04:16:00.481Z,29.8
2023-03-04T04:21:01.028Z,29.8
2023-03-04T04:26:01.579Z,29.6
2023-03-04T04:31:02.097Z,28.1
2023-03-04T04:36:02.564Z,28.6
2023-03-04T04:41:03.059Z,27.5
2023-03-04T04:46:03.642Z,28.5
2023-03-04T04:51:04.224Z,28.4
2023-03-04T04:56:04.840Z,37.6
2023-03-04T05:01:05.514Z,27.8
2023-03-04T05:06:06.039Z,28
2023-03-04T05:11:06.733Z,27.6
2023-03-04T05:16:07.422Z,27.1
2023-03-04T05:21:07.912Z,27.2
2023-03-04T05:26:08.647Z,26.9
2023-03-04T05:31:09.198Z,26.9
2023-03-04T05:36:09.676Z,25.7
2023-03-04T05:41:10.213Z,25.8
2023-03-04T05:46:11.098Z,26.5
2023-03-04T05:51:11.566Z,27.7
2023-03-04T05:56:12.021Z,25.8
2023-03-04T06:01:12.533Z,26.2
2023-03-04T06:06:13.090Z,24.2
2023-03-04T06:11:13.571Z,24
2023-03-04T06:16:14.089Z,24.1
2023-03-04T06:21:14.632Z,24.3
2023-03-04T06:26:15.284Z,23.6
2023-03-04T06:31:15.950Z,22.8
2023-03-04T06:36:17.523Z,22.7
2023-03-04T06:41:18.010Z,23.3
2023-03-04T06:46:18.538Z,23.2
2023-03-04T06:51:19.201Z,50.9
2023-03-04T06:56:19.791Z,111.3
2023-03-04T07:01:20.171Z,65.8
2023-03-04T07:06:20.609Z,37.7
2023-03-04T07:11:21.122Z,31.2
2023-03-04T07:16:21.638Z,28.1
2023-03-04T07:21:22.239Z,26
2023-03-04T07:26:23.021Z,29.4
2023-03-04T07:31:23.580Z,26.9
2023-03-04T07:36:24.057Z,25.9
2023-03-04T07:41:24.755Z,26.6
2023-03-04T07:46:25.151Z,23.8
2023-03-04T07:51:25.695Z,25.9
2023-03-04T07:56:26.090Z,26
2023-03-04T08:01:26.514Z,27.8
2023-03-04T08:06:27.077Z,32.9
2023-03-04T08:11:27.606Z,35
2023-03-04T08:16:28.003Z,34.4
2023-03-04T08:21:28.457Z,33.2
2023-03-04T08:26:31.408Z,32.1
2023-03-04T08:31:32.124Z,26.8
2023-03-04T08:36:32.633Z,25.9
2023-03-04T08:41:33.231Z,32.4
2023-03-04T08:46:33.691Z,29.4
2023-03-04T08:51:34.322Z,26.1
2023-03-04T08:56:34.738Z,28.3
2023-03-04T09:01:35.267Z,35.6
2023-03-04T09:06:35.868Z,33.1
2023-03-04T09:11:36.231Z,38.7
2023-03-04T09:16:36.659Z,36.8
2023-03-04T09:21:37.162Z,29.9
2023-03-04T09:26:37.817Z,26.3
2023-03-04T09:31:38.291Z,38.1
2023-03-04T09:36:38.750Z,31.8
2023-03-04T09:41:39.384Z,27.5
2023-03-04T09:46:39.948Z,29.5
2023-03-04T09:51:40.564Z,31.4
2023-03-04T09:56:41.092Z,33.6
2023-03-04T10:01:41.648Z,34.5
2023-03-04T10:06:42.147Z,37
2023-03-04T10:11:43.154Z,49.5
2023-03-04T10:16:43.565Z,18.4
2023-03-04T10:21:44.263Z,17.5
2023-03-04T10:26:45.001Z,17.6
2023-03-04T10:31:45.538Z,18.1
2023-03-04T10:36:45.974Z,17.6
2023-03-04T10:41:46.616Z,17.6
2023-03-04T10:46:47.106Z,18.4
2023-03-04T10:51:47.640Z,18.5
2023-03-04T10:56:48.176Z,18.6
2023-03-04T11:01:48.840Z,19
2023-03-04T11:06:49.782Z,19.5
2023-03-04T11:11:50.148Z,19.2
2023-03-04T11:16:50.646Z,18.6
2023-03-04T11:21:51.252Z,18.5
2023-03-04T11:26:51.880Z,17.6
2023-03-04T11:31:52.548Z,19.2
2023-03-04T11:36:53.068Z,16.7
2023-03-04T11:41:53.434Z,17.4
2023-03-04T11:46:53.944Z,17.9
2023-03-04T11:51:54.587Z,16.5
2023-03-04T11:56:55.049Z,18.7
2023-03-04T12:01:55.554Z,16.5
2023-03-04T12:06:56.231Z,16
2023-03-04T12:11:56.689Z,16.1
2023-03-04T12:16:57.234Z,14.3
2023-03-04T12:21:57.734Z,12.4
2023-03-04T12:26:58.232Z,13.6
2023-03-04T12:31:58.789Z,14.2
2023-03-04T12:36:59.570Z,14.2
2023-03-04T12:42:00.143Z,14.2
2023-03-04T12:47:00.669Z,14.5
2023-03-04T12:52:01.293Z,15
2023-03-04T12:57:01.834Z,15.3
2023-03-04T13:02:07.182Z,15.2
2023-03-04T13:07:07.716Z,15.5
2023-03-04T13:12:08.150Z,16
2023-03-04T13:17:08.502Z,14.9
2023-03-04T13:22:09.020Z,15.1
2023-03-04T13:27:09.573Z,16.5
2023-03-04T13:32:10.016Z,16.2
2023-03-04T13:37:10.688Z,16.2
2023-03-04T13:42:11.120Z,17.1
2023-03-04T13:47:11.561Z,17.3
2023-03-04T13:52:12.030Z,17.7
2023-03-04T13:57:12.540Z,16.6
2023-03-04T14:02:12.976Z,18.8
2023-03-04T14:07:13.532Z,17.4
2023-03-04T14:12:13.937Z,18.1
2023-03-04T14:17:14.330Z,18.3
2023-03-04T14:22:14.846Z,20.8
2023-03-04T14:27:15.444Z,22
2023-03-04T14:32:16.374Z,25.3
2023-03-04T14:37:16.867Z,26.8
2023-03-04T14:42:17.253Z,28.4
2023-03-04T14:47:17.738Z,28.4
2023-03-04T14:52:18.359Z,28
2023-03-04T14:57:21.844Z,28.6
2023-03-04T15:02:22.228Z,29.5
2023-03-04T15:07:22.737Z,28.5
2023-03-04T15:12:23.133Z,28.2
2023-03-04T15:17:23.793Z,29.1
2023-03-04T15:22:24.428Z,34.8
2023-03-04T15:27:25.342Z,31.1
2023-03-04T15:32:25.876Z,28.7
2023-03-04T15:37:26.376Z,24.3
2023-03-04T15:42:26.767Z,24.5
2023-03-04T15:47:27.174Z,26
2023-03-04T15:52:27.618Z,23.6
2023-03-04T15:57:28.084Z,21.7
2023-03-04T16:02:28.688Z,20.9
2023-03-04T16:07:29.150Z,20.5
2023-03-04T16:12:30.019Z,20.5
2023-03-04T16:17:32.425Z,21.1
2023-03-04T16:22:36.227Z,21.7
2023-03-04T16:27:37.100Z,22.3
2023-03-04T16:32:38.397Z,31.2
2023-03-04T16:37:38.991Z,25.6
2023-03-04T16:42:39.458Z,29.4
2023-03-04T16:47:39.933Z,26.3
2023-03-04T16:52:40.659Z,23.5
2023-03-04T16:57:41.243Z,21.9
2023-03-04T17:02:41.806Z,21.3
2023-03-04T17:07:42.290Z,22
2023-03-04T17:12:43.340Z,21.2
2023-03-04T17:17:43.945Z,25.7
2023-03-04T17:22:44.567Z,25.8
2023-03-04T17:27:45.126Z,24.4
2023-03-04T17:32:45.797Z,20.3
2023-03-04T17:37:46.325Z,27.5
2023-03-04T17:42:46.782Z,22.9
2023-03-04T17:47:47.348Z,21.4
2023-03-04T17:52:47.856Z,19.8
2023-03-04T17:57:48.383Z,15.8
2023-03-04T18:02:49.053Z,18.6
2023-03-04T18:07:49.637Z,18.4
2023-03-04T18:12:50.228Z,16.3
2023-03-04T18:17:50.678Z,14.5
2023-03-04T18:22:51.271Z,14
2023-03-04T18:27:51.827Z,14.4
2023-03-04T18:32:53.557Z,15.9
2023-03-04T18:37:54.270Z,15.9
2023-03-04T18:42:54.833Z,16.1
2023-03-04T18:47:55.322Z,16.2
2023-03-04T18:52:55.800Z,16.1
2023-03-04T18:57:56.198Z,15.2
2023-03-04T19:02:56.664Z,16.2
2023-03-04T19:07:57.563Z,16.8
2023-03-04T19:12:58.119Z,22.4
2023-03-04T19:17:58.624Z,23.8
2023-03-04T19:22:59.154Z,24.6
2023-03-04T19:28:00.218Z,25.3
2023-03-04T19:33:01.020Z,20.8
2023-03-04T19:38:01.577Z,16.7
2023-03-04T19:43:02.250Z,21.5
2023-03-04T19:48:02.802Z,26.7
2023-03-04T19:53:04.141Z,23.6
2023-03-04T19:58:04.693Z,18.5
2023-03-04T20:03:05.222Z,20.2
2023-03-04T20:08:05.737Z,20
2023-03-04T20:13:06.374Z,21
2023-03-04T20:18:07.047Z,18.3
2023-03-04T20:23:07.725Z,19.7
2023-03-04T20:28:08.367Z,18.8
2023-03-04T20:33:08.891Z,17.9
2023-03-04T20:38:11.226Z,22.4
2023-03-04T20:43:11.878Z,21.3
2023-03-04T20:48:12.530Z,20.2
2023-03-04T20:53:13.343Z,19.6
2023-03-04T20:58:13.735Z,19.5
2023-03-04T21:03:14.235Z,25.8
2023-03-04T21:08:14.844Z,19.5
2023-03-04T21:13:15.518Z,25.3
2023-03-04T21:18:16.080Z,20.8
2023-03-04T21:23:16.616Z,18.5
2023-03-04T21:28:17.183Z,29.2
2023-03-04T21:33:17.784Z,26.7
2023-03-04T21:38:18.516Z,16
2023-03-04T21:43:19.046Z,27.1
2023-03-04T21:48:19.549Z,18
2023-03-04T21:53:20.022Z,17
2023-03-04T21:58:20.529Z,13.9
2023-03-04T22:03:20.989Z,14.4
2023-03-04T22:08:21.553Z,13
2023-03-04T22:13:22.071Z,12.7
2023-03-04T22:18:22.617Z,13.2
2023-03-04T22:23:23.262Z,13.7
2023-03-04T22:28:23.837Z,21.4
2023-03-04T22:33:24.602Z,51
2023-03-04T22:38:25.127Z,90.7
2023-03-04T22:43:25.605Z,112
2023-03-04T22:48:26.140Z,98.7
2023-03-04T22:53:27.128Z,64.4
2023-03-04T22:58:27.622Z,38.4
2023-03-04T23:03:28.082Z,20
2023-03-04T23:08:28.782Z,14.4
2023-03-04T23:13:29.343Z,11.6
2023-03-04T23:18:30.026Z,11.2
2023-03-04T23:23:30.664Z,10.8
2023-03-04T23:28:31.382Z,10.3
2023-03-04T23:33:32.017Z,11
2023-03-04T23:38:32.705Z,10.3
2023-03-04T23:43:33.218Z,10.1
2023-03-04T23:48:33.763Z,9.5
2023-03-04T23:53:34.658Z,10.2
2023-03-04T23:58:35.171Z,10.2
